Terminal Aerodrome Forecast
Issued by NWS

Home | Current Version | Previous Version | Text Only | Print | Product List | Glossary On
Versions: 1 2 3 4 5 6 7 8 9 10 11 12
000
FTUS45 KTFX 180500
TAFBZN
TAF
KBZN 180520Z 1806/1906 16007KT P6SM SCT150
     FM181500 25006KT P6SM VCSH SCT080 BKN120
     FM182100 24011KT P6SM SCT060 BKN100 PROB30 1821/1902 -TSRA
      BKN060CB
     FM190200 24007KT P6SM BKN120=

USA.gov is the U.S. government's official web portal to all federal, state and local government web resources and services.